sensor_id;sensor_type;location;lat;lon;timestamp;pressure;altitude;pressure_sealevel;temperature;humidity
62849;BME280;48941;49.516;8.286;2022-08-21T00:00:21;100484.03;;;19.38;55.17
62849;BME280;48941;49.516;8.286;2022-08-21T00:02:51;100477.13;;;19.35;54.85
62849;BME280;48941;49.516;8.286;2022-08-21T00:05:22;100475.44;;;19.34;54.98
62849;BME280;48941;49.516;8.286;2022-08-21T00:07:50;100476.63;;;19.32;55.16
62849;BME280;48941;49.516;8.286;2022-08-21T00:10:18;100473.06;;;19.31;55.46
62849;BME280;48941;49.516;8.286;2022-08-21T00:12:47;100477.16;;;19.27;55.24
62849;BME280;48941;49.516;8.286;2022-08-21T00:15:22;100474.94;;;19.30;55.14
62849;BME280;48941;49.516;8.286;2022-08-21T00:17:50;100474.59;;;19.34;54.83
62849;BME280;48941;49.516;8.286;2022-08-21T00:20:19;100477.31;;;19.34;54.55
62849;BME280;48941;49.516;8.286;2022-08-21T00:22:48;100480.84;;;19.34;54.44
62849;BME280;48941;49.516;8.286;2022-08-21T00:25:17;100472.72;;;19.34;54.68
62849;BME280;48941;49.516;8.286;2022-08-21T00:27:52;100473.28;;;19.29;54.59
62849;BME280;48941;49.516;8.286;2022-08-21T00:30:23;100472.97;;;19.24;54.86
62849;BME280;48941;49.516;8.286;2022-08-21T00:32:52;100472.47;;;19.21;54.98
62849;BME280;48941;49.516;8.286;2022-08-21T00:35:25;100469.47;;;19.16;55.11
62849;BME280;48941;49.516;8.286;2022-08-21T00:37:53;100476.25;;;19.12;55.04
62849;BME280;48941;49.516;8.286;2022-08-21T00:40:24;100469.31;;;19.09;55.15
62849;BME280;48941;49.516;8.286;2022-08-21T00:42:53;100469.50;;;19.07;55.50
62849;BME280;48941;49.516;8.286;2022-08-21T00:45:37;100470.69;;;19.05;55.30
62849;BME280;48941;49.516;8.286;2022-08-21T00:48:05;100473.59;;;19.03;55.33
62849;BME280;48941;49.516;8.286;2022-08-21T00:50:35;100464.81;;;19.01;55.90
62849;BME280;48941;49.516;8.286;2022-08-21T00:53:06;100475.78;;;19.00;55.72
62849;BME280;48941;49.516;8.286;2022-08-21T00:55:36;100474.63;;;18.94;56.19
62849;BME280;48941;49.516;8.286;2022-08-21T00:58:06;100472.25;;;18.91;56.44
62849;BME280;48941;49.516;8.286;2022-08-21T01:00:39;100477.53;;;18.84;56.54
62849;BME280;48941;49.516;8.286;2022-08-21T01:03:10;100477.53;;;18.84;56.51
62849;BME280;48941;49.516;8.286;2022-08-21T01:05:40;100471.97;;;18.86;56.33
62849;BME280;48941;49.516;8.286;2022-08-21T01:08:09;100477.53;;;18.84;56.39
62849;BME280;48941;49.516;8.286;2022-08-21T01:10:52;100481.25;;;18.83;56.61
62849;BME280;48941;49.516;8.286;2022-08-21T01:13:21;100480.22;;;18.84;56.51
62849;BME280;48941;49.516;8.286;2022-08-21T01:15:54;100472.13;;;18.84;56.22
62849;BME280;48941;49.516;8.286;2022-08-21T01:18:23;100478.06;;;18.80;56.56
62849;BME280;48941;49.516;8.286;2022-08-21T01:21:04;100468.78;;;18.74;56.44
62849;BME280;48941;49.516;8.286;2022-08-21T01:23:33;100469.47;;;18.68;56.68
62849;BME280;48941;49.516;8.286;2022-08-21T01:26:02;100462.75;;;18.64;56.63
62849;BME280;48941;49.516;8.286;2022-08-21T01:28:33;100469.13;;;18.63;56.58
62849;BME280;48941;49.516;8.286;2022-08-21T01:31:02;100468.84;;;18.58;56.61
62849;BME280;48941;49.516;8.286;2022-08-21T01:33:32;100476.97;;;18.49;57.20
62849;BME280;48941;49.516;8.286;2022-08-21T01:36:00;100470.72;;;18.41;57.52
62849;BME280;48941;49.516;8.286;2022-08-21T01:38:30;100480.84;;;18.30;58.09
62849;BME280;48941;49.516;8.286;2022-08-21T01:41:12;100480.72;;;18.16;58.66
62849;BME280;48941;49.516;8.286;2022-08-21T01:43:40;100479.88;;;18.07;58.76
62849;BME280;48941;49.516;8.286;2022-08-21T01:46:09;100480.53;;;18.09;58.80
62849;BME280;48941;49.516;8.286;2022-08-21T01:48:37;100468.59;;;18.11;58.32
62849;BME280;48941;49.516;8.286;2022-08-21T01:51:06;100476.34;;;18.15;57.90
62849;BME280;48941;49.516;8.286;2022-08-21T01:53:36;100477.16;;;18.15;58.20
62849;BME280;48941;49.516;8.286;2022-08-21T01:56:06;100468.75;;;18.18;58.12
62849;BME280;48941;49.516;8.286;2022-08-21T01:58:48;100470.09;;;18.14;58.34
62849;BME280;48941;49.516;8.286;2022-08-21T02:01:16;100462.16;;;18.21;57.98
62849;BME280;48941;49.516;8.286;2022-08-21T02:03:44;100456.28;;;18.25;57.92
62849;BME280;48941;49.516;8.286;2022-08-21T02:06:14;100463.69;;;18.23;58.29
62849;BME280;48941;49.516;8.286;2022-08-21T02:08:46;100463.34;;;18.26;58.21
62849;BME280;48941;49.516;8.286;2022-08-21T02:11:14;100463.50;;;18.25;58.48
62849;BME280;48941;49.516;8.286;2022-08-21T02:13:42;100451.06;;;18.24;58.50
62849;BME280;48941;49.516;8.286;2022-08-21T02:16:11;100452.72;;;18.25;58.07
62849;BME280;48941;49.516;8.286;2022-08-21T02:18:45;100450.91;;;18.25;58.33
62849;BME280;48941;49.516;8.286;2022-08-21T02:21:13;100444.63;;;18.25;57.98
62849;BME280;48941;49.516;8.286;2022-08-21T02:23:41;100444.47;;;18.26;58.43
62849;BME280;48941;49.516;8.286;2022-08-21T02:26:11;100443.97;;;18.23;58.39
62849;BME280;48941;49.516;8.286;2022-08-21T02:28:39;100441.47;;;18.21;58.22
62849;BME280;48941;49.516;8.286;2022-08-21T02:31:07;100429.97;;;18.19;58.14
62849;BME280;48941;49.516;8.286;2022-08-21T02:33:35;100440.47;;;18.14;58.23
62849;BME280;48941;49.516;8.286;2022-08-21T02:38:43;100442.66;;;18.02;58.67
62849;BME280;48941;49.516;8.286;2022-08-21T02:41:14;100448.59;;;17.89;58.84
62849;BME280;48941;49.516;8.286;2022-08-21T02:43:43;100449.25;;;17.83;59.33
62849;BME280;48941;49.516;8.286;2022-08-21T02:46:13;100449.03;;;17.77;59.05
62849;BME280;48941;49.516;8.286;2022-08-21T02:48:42;100457.16;;;17.85;59.09
62849;BME280;48941;49.516;8.286;2022-08-21T02:51:13;100443.34;;;17.88;58.98
62849;BME280;48941;49.516;8.286;2022-08-21T02:53:44;100450.25;;;17.90;59.25
62849;BME280;48941;49.516;8.286;2022-08-21T02:56:14;100450.91;;;17.92;58.70
62849;BME280;48941;49.516;8.286;2022-08-21T02:58:44;100450.75;;;17.94;58.63
62849;BME280;48941;49.516;8.286;2022-08-21T03:01:13;100451.28;;;17.89;59.35
62849;BME280;48941;49.516;8.286;2022-08-21T03:03:55;100447.22;;;17.85;59.37
62849;BME280;48941;49.516;8.286;2022-08-21T03:06:23;100450.94;;;17.84;59.39
62849;BME280;48941;49.516;8.286;2022-08-21T03:09:06;100442.97;;;17.83;59.46
62849;BME280;48941;49.516;8.286;2022-08-21T03:11:34;100446.03;;;17.80;59.35
62849;BME280;48941;49.516;8.286;2022-08-21T03:14:03;100447.69;;;17.72;59.25
62849;BME280;48941;49.516;8.286;2022-08-21T03:16:31;100444.16;;;17.64;59.79
62849;BME280;48941;49.516;8.286;2022-08-21T03:19:01;100440.28;;;17.58;59.81
62849;BME280;48941;49.516;8.286;2022-08-21T03:21:29;100446.34;;;17.52;60.10
62849;BME280;48941;49.516;8.286;2022-08-21T03:23:57;100437.91;;;17.47;60.23
62849;BME280;48941;49.516;8.286;2022-08-21T03:26:31;100438.09;;;17.45;60.23
62849;BME280;48941;49.516;8.286;2022-08-21T03:28:59;100433.88;;;17.43;60.21
62849;BME280;48941;49.516;8.286;2022-08-21T03:31:27;100441.28;;;17.41;60.27
62849;BME280;48941;49.516;8.286;2022-08-21T03:33:58;100444.31;;;17.38;60.36
62849;BME280;48941;49.516;8.286;2022-08-21T03:36:34;100440.75;;;17.37;60.78
62849;BME280;48941;49.516;8.286;2022-08-21T03:39:02;100442.78;;;17.35;60.28
62849;BME280;48941;49.516;8.286;2022-08-21T03:41:31;100447.16;;;17.36;60.15
62849;BME280;48941;49.516;8.286;2022-08-21T03:43:59;100450.69;;;17.37;60.31
62849;BME280;48941;49.516;8.286;2022-08-21T03:46:27;100446.66;;;17.32;59.87
62849;BME280;48941;49.516;8.286;2022-08-21T03:48:55;100448.81;;;17.21;60.21
62849;BME280;48941;49.516;8.286;2022-08-21T03:51:23;100452.53;;;17.20;60.14
62849;BME280;48941;49.516;8.286;2022-08-21T03:53:55;100448.50;;;17.24;60.17
62849;BME280;48941;49.516;8.286;2022-08-21T03:56:22;100457.41;;;17.24;60.07
62849;BME280;48941;49.516;8.286;2022-08-21T03:58:52;100457.75;;;17.29;60.20
62849;BME280;48941;49.516;8.286;2022-08-21T04:01:20;100454.03;;;17.30;59.82
62849;BME280;48941;49.516;8.286;2022-08-21T04:03:48;100452.88;;;17.33;60.18
62849;BME280;48941;49.516;8.286;2022-08-21T04:06:15;100458.25;;;17.33;60.49
62849;BME280;48941;49.516;8.286;2022-08-21T04:08:44;100468.19;;;17.32;60.03
62849;BME280;48941;49.516;8.286;2022-08-21T04:11:12;100468.34;;;17.31;60.24
62849;BME280;48941;49.516;8.286;2022-08-21T04:13:41;100469.00;;;17.25;60.42
62849;BME280;48941;49.516;8.286;2022-08-21T04:16:12;100465.78;;;17.21;60.63
62849;BME280;48941;49.516;8.286;2022-08-21T04:18:40;100471.84;;;17.23;60.42
62849;BME280;48941;49.516;8.286;2022-08-21T04:21:10;100466.81;;;17.20;60.80
62849;BME280;48941;49.516;8.286;2022-08-21T04:23:39;100465.78;;;17.13;60.98
62849;BME280;48941;49.516;8.286;2022-08-21T04:26:07;100469.63;;;17.10;60.96
62849;BME280;48941;49.516;8.286;2022-08-21T04:28:35;100468.97;;;17.08;60.75
62849;BME280;48941;49.516;8.286;2022-08-21T04:31:03;100472.97;;;17.04;61.01
62849;BME280;48941;49.516;8.286;2022-08-21T04:33:32;100473.97;;;17.03;61.00
62849;BME280;48941;49.516;8.286;2022-08-21T04:36:00;100478.38;;;17.04;61.18
62849;BME280;48941;49.516;8.286;2022-08-21T04:38:43;100483.06;;;17.02;61.61
62849;BME280;48941;49.516;8.286;2022-08-21T04:41:11;100481.06;;;17.04;62.77
62849;BME280;48941;49.516;8.286;2022-08-21T04:43:39;100488.31;;;17.12;63.39
62849;BME280;48941;49.516;8.286;2022-08-21T04:46:07;100492.69;;;17.13;63.34
62849;BME280;48941;49.516;8.286;2022-08-21T04:48:40;100492.53;;;17.15;63.28
62849;BME280;48941;49.516;8.286;2022-08-21T04:51:12;100494.53;;;17.12;63.09
62849;BME280;48941;49.516;8.286;2022-08-21T04:53:45;100502.94;;;17.09;62.93
62849;BME280;48941;49.516;8.286;2022-08-21T04:56:19;100503.78;;;17.10;63.48
62849;BME280;48941;49.516;8.286;2022-08-21T04:58:49;100498.41;;;17.10;63.61
62849;BME280;48941;49.516;8.286;2022-08-21T05:01:20;100492.00;;;17.11;62.98
62849;BME280;48941;49.516;8.286;2022-08-21T05:06:17;100495.06;;;17.16;62.84
62849;BME280;48941;49.516;8.286;2022-08-21T05:08:51;100501.13;;;17.18;63.10
62849;BME280;48941;49.516;8.286;2022-08-21T05:11:27;100507.03;;;17.22;63.17
62849;BME280;48941;49.516;8.286;2022-08-21T05:14:04;100510.91;;;17.27;62.91
62849;BME280;48941;49.516;8.286;2022-08-21T05:16:31;100505.56;;;17.36;62.62
62849;BME280;48941;49.516;8.286;2022-08-21T05:19:04;100522.72;;;17.43;62.10
62849;BME280;48941;49.516;8.286;2022-08-21T05:21:33;100517.00;;;17.46;62.14
62849;BME280;48941;49.516;8.286;2022-08-21T05:24:01;100523.09;;;17.48;61.78
62849;BME280;48941;49.516;8.286;2022-08-21T05:26:29;100526.09;;;17.45;61.80
62849;BME280;48941;49.516;8.286;2022-08-21T05:29:14;100519.19;;;17.42;62.21
62849;BME280;48941;49.516;8.286;2022-08-21T05:31:44;100519.50;;;17.39;62.11
62849;BME280;48941;49.516;8.286;2022-08-21T05:34:17;100524.06;;;17.39;62.21
62849;BME280;48941;49.516;8.286;2022-08-21T05:36:45;100520.69;;;17.37;62.18
62849;BME280;48941;49.516;8.286;2022-08-21T05:39:13;100521.34;;;17.39;62.28
62849;BME280;48941;49.516;8.286;2022-08-21T05:41:41;100526.44;;;17.42;62.46
62849;BME280;48941;49.516;8.286;2022-08-21T05:44:23;100522.41;;;17.46;62.55
62849;BME280;48941;49.516;8.286;2022-08-21T05:46:52;100523.41;;;17.53;62.58
62849;BME280;48941;49.516;8.286;2022-08-21T05:49:21;100530.16;;;17.57;62.41
62849;BME280;48941;49.516;8.286;2022-08-21T05:51:49;100521.59;;;17.62;62.63
62849;BME280;48941;49.516;8.286;2022-08-21T05:54:17;100520.25;;;17.66;62.59
62849;BME280;48941;49.516;8.286;2022-08-21T05:56:45;100527.81;;;17.70;62.52
62849;BME280;48941;49.516;8.286;2022-08-21T05:59:27;100529.19;;;17.75;63.05
62849;BME280;48941;49.516;8.286;2022-08-21T06:01:55;100520.78;;;17.78;62.73
62849;BME280;48941;49.516;8.286;2022-08-21T06:04:37;100527.03;;;17.86;62.27
62849;BME280;48941;49.516;8.286;2022-08-21T06:07:05;100527.88;;;17.95;62.28
62849;BME280;48941;49.516;8.286;2022-08-21T06:09:35;100533.97;;;18.05;61.61
62849;BME280;48941;49.516;8.286;2022-08-21T06:12:05;100525.00;;;18.13;60.96
62849;BME280;48941;49.516;8.286;2022-08-21T06:14:36;100530.06;;;18.24;61.19
62849;BME280;48941;49.516;8.286;2022-08-21T06:17:06;100527.53;;;18.31;60.54
62849;BME280;48941;49.516;8.286;2022-08-21T06:19:36;100526.50;;;18.40;60.04
62849;BME280;48941;49.516;8.286;2022-08-21T06:22:04;100534.59;;;18.48;59.43
62849;BME280;48941;49.516;8.286;2022-08-21T06:24:47;100529.00;;;18.58;58.56
62849;BME280;48941;49.516;8.286;2022-08-21T06:27:21;100527.31;;;18.65;57.64
62849;BME280;48941;49.516;8.286;2022-08-21T06:29:52;100530.50;;;18.77;57.40
62849;BME280;48941;49.516;8.286;2022-08-21T06:32:20;100538.94;;;18.82;57.60
62849;BME280;48941;49.516;8.286;2022-08-21T06:34:49;100529.31;;;18.88;57.63
62849;BME280;48941;49.516;8.286;2022-08-21T06:37:19;100538.19;;;18.97;57.28
62849;BME280;48941;49.516;8.286;2022-08-21T06:39:47;100531.09;;;19.04;57.61
62849;BME280;48941;49.516;8.286;2022-08-21T06:42:17;100531.56;;;19.16;57.34
62849;BME280;48941;49.516;8.286;2022-08-21T06:44:46;100534.72;;;19.27;57.01
62849;BME280;48941;49.516;8.286;2022-08-21T06:47:23;100534.97;;;19.41;56.43
62849;BME280;48941;49.516;8.286;2022-08-21T06:49:53;100532.72;;;19.53;55.34
62849;BME280;48941;49.516;8.286;2022-08-21T06:52:21;100537.22;;;19.60;55.67
62849;BME280;48941;49.516;8.286;2022-08-21T06:54:48;100525.53;;;19.68;55.03
62849;BME280;48941;49.516;8.286;2022-08-21T06:57:16;100528.38;;;19.75;55.33
62849;BME280;48941;49.516;8.286;2022-08-21T06:59:44;100526.28;;;19.85;54.97
62849;BME280;48941;49.516;8.286;2022-08-21T07:02:12;100524.19;;;19.95;54.99
62849;BME280;48941;49.516;8.286;2022-08-21T07:04:55;100520.88;;;20.08;55.09
62849;BME280;48941;49.516;8.286;2022-08-21T07:07:23;100525.47;;;20.22;55.62
62849;BME280;48941;49.516;8.286;2022-08-21T07:09:51;100526.25;;;20.31;55.53
62849;BME280;48941;49.516;8.286;2022-08-21T07:12:19;100521.13;;;20.36;54.99
62849;BME280;48941;49.516;8.286;2022-08-21T07:14:58;100521.91;;;20.45;53.64
62849;BME280;48941;49.516;8.286;2022-08-21T07:17:26;100518.25;;;20.53;53.10
62849;BME280;48941;49.516;8.286;2022-08-21T07:20:14;100524.47;;;20.61;52.50
62849;BME280;48941;49.516;8.286;2022-08-21T07:22:42;100521.91;;;20.75;52.11
62849;BME280;48941;49.516;8.286;2022-08-21T07:25:10;100520.63;;;20.85;51.74
62849;BME280;48941;49.516;8.286;2022-08-21T07:27:38;100525.38;;;20.98;51.28
62849;BME280;48941;49.516;8.286;2022-08-21T07:30:07;100527.63;;;21.09;50.74
62849;BME280;48941;49.516;8.286;2022-08-21T07:32:34;100522.38;;;21.23;50.23
62849;BME280;48941;49.516;8.286;2022-08-21T07:35:03;100511.50;;;21.38;50.45
62849;BME280;48941;49.516;8.286;2022-08-21T07:37:32;100519.59;;;21.53;48.98
62849;BME280;48941;49.516;8.286;2022-08-21T07:40:00;100517.88;;;21.66;48.95
62849;BME280;48941;49.516;8.286;2022-08-21T07:42:28;100515.38;;;21.86;48.50
62849;BME280;48941;49.516;8.286;2022-08-21T07:44:56;100518.22;;;22.00;48.09
62849;BME280;48941;49.516;8.286;2022-08-21T07:47:24;100516.72;;;22.19;47.76
62849;BME280;48941;49.516;8.286;2022-08-21T07:50:09;100513.13;;;22.40;46.86
62849;BME280;48941;49.516;8.286;2022-08-21T07:52:39;100517.88;;;22.59;46.31
62849;BME280;48941;49.516;8.286;2022-08-21T07:55:08;100510.84;;;22.72;46.06
62849;BME280;48941;49.516;8.286;2022-08-21T07:57:37;100517.22;;;22.92;45.71
62849;BME280;48941;49.516;8.286;2022-08-21T08:00:08;100508.53;;;23.03;45.40
62849;BME280;48941;49.516;8.286;2022-08-21T08:02:51;100511.97;;;23.25;44.65
62849;BME280;48941;49.516;8.286;2022-08-21T08:05:24;100509.09;;;23.40;44.26
62849;BME280;48941;49.516;8.286;2022-08-21T08:07:53;100501.41;;;23.57;44.12
62849;BME280;48941;49.516;8.286;2022-08-21T08:10:22;100502.47;;;23.76;43.47
62849;BME280;48941;49.516;8.286;2022-08-21T08:12:51;100509.22;;;23.94;43.20
62849;BME280;48941;49.516;8.286;2022-08-21T08:15:26;100506.31;;;24.15;42.99
62849;BME280;48941;49.516;8.286;2022-08-21T08:17:57;100503.59;;;24.29;42.55
62849;BME280;48941;49.516;8.286;2022-08-21T08:20:25;100501.69;;;24.42;42.19
62849;BME280;48941;49.516;8.286;2022-08-21T08:22:55;100499.78;;;24.50;42.08
62849;BME280;48941;49.516;8.286;2022-08-21T08:25:25;100495.59;;;24.67;41.98
62849;BME280;48941;49.516;8.286;2022-08-21T08:28:00;100487.38;;;24.87;41.73
62849;BME280;48941;49.516;8.286;2022-08-21T08:30:47;100482.47;;;25.09;41.37
62849;BME280;48941;49.516;8.286;2022-08-21T08:33:16;100483.47;;;25.21;41.00
62849;BME280;48941;49.516;8.286;2022-08-21T08:35:45;100477.16;;;25.28;40.78
62849;BME280;48941;49.516;8.286;2022-08-21T08:38:15;100477.31;;;25.39;40.57
62849;BME280;48941;49.516;8.286;2022-08-21T08:40:55;100479.69;;;25.61;40.21
62849;BME280;48941;49.516;8.286;2022-08-21T08:43:27;100474.72;;;25.83;39.78
62849;BME280;48941;49.516;8.286;2022-08-21T08:45:57;100470.84;;;25.97;39.64
62849;BME280;48941;49.516;8.286;2022-08-21T08:48:31;100468.44;;;26.08;39.07
62849;BME280;48941;49.516;8.286;2022-08-21T08:51:22;100464.22;;;26.12;39.47
62849;BME280;48941;49.516;8.286;2022-08-21T08:53:56;100462.06;;;26.20;39.19
62849;BME280;48941;49.516;8.286;2022-08-21T08:56:28;100460.97;;;26.21;38.97
62849;BME280;48941;49.516;8.286;2022-08-21T08:59:05;100453.50;;;26.35;38.74
62849;BME280;48941;49.516;8.286;2022-08-21T09:01:34;100456.47;;;26.52;38.89
62849;BME280;48941;49.516;8.286;2022-08-21T09:04:05;100455.13;;;26.61;38.87
62849;BME280;48941;49.516;8.286;2022-08-21T09:06:49;100446.47;;;26.83;38.32
62849;BME280;48941;49.516;8.286;2022-08-21T09:09:29;100446.06;;;26.98;38.33
62849;BME280;48941;49.516;8.286;2022-08-21T09:12:04;100444.31;;;27.22;38.20
62849;BME280;48941;49.516;8.286;2022-08-21T09:14:46;100433.94;;;27.42;38.18
62849;BME280;48941;49.516;8.286;2022-08-21T09:20:06;100430.94;;;27.86;37.67
62849;BME280;48941;49.516;8.286;2022-08-21T09:22:48;100435.59;;;27.97;38.00
62849;BME280;48941;49.516;8.286;2022-08-21T09:25:33;100434.91;;;28.14;37.72
62849;BME280;48941;49.516;8.286;2022-08-21T09:28:08;100437.88;;;28.24;37.11
62849;BME280;48941;49.516;8.286;2022-08-21T09:30:54;100435.84;;;28.43;36.99
62849;BME280;48941;49.516;8.286;2022-08-21T09:33:24;100433.47;;;28.58;35.96
62849;BME280;48941;49.516;8.286;2022-08-21T09:35:55;100435.44;;;28.75;34.87
62849;BME280;48941;49.516;8.286;2022-08-21T09:38:40;100427.19;;;28.87;34.70
62849;BME280;48941;49.516;8.286;2022-08-21T09:41:10;100430.06;;;28.92;34.41
62849;BME280;48941;49.516;8.286;2022-08-21T09:43:38;100424.66;;;28.97;33.66
62849;BME280;48941;49.516;8.286;2022-08-21T09:46:22;100426.53;;;29.08;32.89
62849;BME280;48941;49.516;8.286;2022-08-21T09:48:52;100423.31;;;29.11;32.22
62849;BME280;48941;49.516;8.286;2022-08-21T09:51:24;100423.44;;;29.05;32.32
62849;BME280;48941;49.516;8.286;2022-08-21T09:53:56;100425.34;;;29.16;32.12
62849;BME280;48941;49.516;8.286;2022-08-21T09:56:52;100427.34;;;29.37;31.74
62849;BME280;48941;49.516;8.286;2022-08-21T09:59:50;100424.81;;;29.48;29.74
62849;BME280;48941;49.516;8.286;2022-08-21T10:02:28;100424.81;;;29.48;30.55
62849;BME280;48941;49.516;8.286;2022-08-21T10:04:59;100425.53;;;29.72;30.96
62849;BME280;48941;49.516;8.286;2022-08-21T10:07:30;100419.25;;;29.93;29.83
62849;BME280;48941;49.516;8.286;2022-08-21T10:10:01;100420.03;;;30.06;29.24
62849;BME280;48941;49.516;8.286;2022-08-21T10:12:37;100415.84;;;30.20;29.50
62849;BME280;48941;49.516;8.286;2022-08-21T10:15:13;100410.72;;;30.29;29.52
62849;BME280;48941;49.516;8.286;2022-08-21T10:17:58;100418.22;;;30.33;28.94
62849;BME280;48941;49.516;8.286;2022-08-21T10:20:34;100409.56;;;30.25;29.10
62849;BME280;48941;49.516;8.286;2022-08-21T10:23:29;100406.03;;;30.07;29.58
62849;BME280;48941;49.516;8.286;2022-08-21T10:26:06;100399.03;;;30.16;29.49
62849;BME280;48941;49.516;8.286;2022-08-21T10:28:45;100398.75;;;30.35;28.93
62849;BME280;48941;49.516;8.286;2022-08-21T10:31:21;100393.28;;;30.57;29.28
62849;BME280;48941;49.516;8.286;2022-08-21T10:34:18;100380.38;;;30.80;28.99
62849;BME280;48941;49.516;8.286;2022-08-21T10:37:01;100390.47;;;30.96;28.03
62849;BME280;48941;49.516;8.286;2022-08-21T10:39:41;100391.41;;;31.07;27.77
62849;BME280;48941;49.516;8.286;2022-08-21T10:42:23;100381.22;;;31.07;28.06
62849;BME280;48941;49.516;8.286;2022-08-21T10:45:08;100380.72;;;31.10;28.17
62849;BME280;48941;49.516;8.286;2022-08-21T10:47:42;100373.13;;;31.23;27.93
62849;BME280;48941;49.516;8.286;2022-08-21T10:50:19;100379.28;;;31.35;27.42
62849;BME280;48941;49.516;8.286;2022-08-21T10:53:22;100370.16;;;31.29;27.63
62849;BME280;48941;49.516;8.286;2022-08-21T10:55:59;100365.81;;;31.33;27.13
62849;BME280;48941;49.516;8.286;2022-08-21T10:58:30;100363.75;;;31.46;27.41
62849;BME280;48941;49.516;8.286;2022-08-21T11:01:09;100361.59;;;31.53;26.90
62849;BME280;48941;49.516;8.286;2022-08-21T11:03:42;100363.28;;;31.59;27.18
62849;BME280;48941;49.516;8.286;2022-08-21T11:06:15;100360.84;;;31.63;27.12
62849;BME280;48941;49.516;8.286;2022-08-21T11:08:49;100358.00;;;31.52;26.69
62849;BME280;48941;49.516;8.286;2022-08-21T11:11:22;100355.34;;;31.63;26.75
62849;BME280;48941;49.516;8.286;2022-08-21T11:14:04;100347.63;;;31.65;26.50
62849;BME280;48941;49.516;8.286;2022-08-21T11:16:40;100346.84;;;31.69;26.25
62849;BME280;48941;49.516;8.286;2022-08-21T11:19:15;100344.56;;;31.56;26.89
62849;BME280;48941;49.516;8.286;2022-08-21T11:24:29;100345.91;;;31.53;27.00
62849;BME280;48941;49.516;8.286;2022-08-21T11:27:03;100344.63;;;31.66;26.83
62849;BME280;48941;49.516;8.286;2022-08-21T11:29:35;100338.94;;;31.83;26.87
62849;BME280;48941;49.516;8.286;2022-08-21T11:32:22;100341.25;;;31.96;26.14
62849;BME280;48941;49.516;8.286;2022-08-21T11:34:58;100339.69;;;32.06;25.86
62849;BME280;48941;49.516;8.286;2022-08-21T11:37:41;100332.97;;;31.96;26.22
62849;BME280;48941;49.516;8.286;2022-08-21T11:40:22;100330.47;;;31.95;26.14
62849;BME280;48941;49.516;8.286;2022-08-21T11:43:15;100328.03;;;31.93;25.91
62849;BME280;48941;49.516;8.286;2022-08-21T11:45:48;100327.16;;;31.93;25.96
62849;BME280;48941;49.516;8.286;2022-08-21T11:48:30;100318.34;;;31.91;26.18
62849;BME280;48941;49.516;8.286;2022-08-21T11:51:00;100317.66;;;32.11;26.16
62849;BME280;48941;49.516;8.286;2022-08-21T11:53:35;100314.94;;;32.21;26.05
62849;BME280;48941;49.516;8.286;2022-08-21T11:56:08;100314.38;;;32.14;25.50
62849;BME280;48941;49.516;8.286;2022-08-21T11:58:42;100311.63;;;32.19;25.49
62849;BME280;48941;49.516;8.286;2022-08-21T12:03:52;100314.97;;;32.26;25.96
62849;BME280;48941;49.516;8.286;2022-08-21T12:06:29;100316.69;;;32.38;25.66
62849;BME280;48941;49.516;8.286;2022-08-21T12:08:59;100315.84;;;32.37;25.52
62849;BME280;48941;49.516;8.286;2022-08-21T12:11:27;100308.25;;;32.60;25.52
62849;BME280;48941;49.516;8.286;2022-08-21T12:13:59;100304.69;;;32.95;25.07
62849;BME280;48941;49.516;8.286;2022-08-21T12:16:43;100301.41;;;33.03;25.05
62849;BME280;48941;49.516;8.286;2022-08-21T12:19:30;100309.13;;;33.06;24.94
62849;BME280;48941;49.516;8.286;2022-08-21T12:22:13;100301.16;;;33.10;24.47
62849;BME280;48941;49.516;8.286;2022-08-21T12:27:28;100298.59;;;32.72;24.83
62849;BME280;48941;49.516;8.286;2022-08-21T12:30:32;100293.91;;;32.68;24.37
62849;BME280;48941;49.516;8.286;2022-08-21T12:33:03;100295.00;;;32.67;24.37
62849;BME280;48941;49.516;8.286;2022-08-21T12:35:37;100299.16;;;32.74;24.23
62849;BME280;48941;49.516;8.286;2022-08-21T12:38:09;100294.19;;;32.77;24.76
62849;BME280;48941;49.516;8.286;2022-08-21T12:40:42;100290.63;;;32.76;24.47
62849;BME280;48941;49.516;8.286;2022-08-21T12:43:13;100286.47;;;32.79;24.53
62849;BME280;48941;49.516;8.286;2022-08-21T12:45:46;100289.50;;;32.77;24.44
62849;BME280;48941;49.516;8.286;2022-08-21T12:48:33;100277.41;;;32.88;24.20
62849;BME280;48941;49.516;8.286;2022-08-21T12:51:09;100277.94;;;33.01;23.62
62849;BME280;48941;49.516;8.286;2022-08-21T12:53:44;100281.28;;;33.08;23.70
62849;BME280;48941;49.516;8.286;2022-08-21T12:56:14;100279.34;;;32.98;24.24
62849;BME280;48941;49.516;8.286;2022-08-21T12:58:45;100276.84;;;32.97;23.88
62849;BME280;48941;49.516;8.286;2022-08-21T13:01:20;100280.97;;;32.73;23.92
62849;BME280;48941;49.516;8.286;2022-08-21T13:03:50;100281.69;;;32.48;24.11
62849;BME280;48941;49.516;8.286;2022-08-21T13:06:38;100288.53;;;32.30;25.05
62849;BME280;48941;49.516;8.286;2022-08-21T13:09:11;100281.28;;;32.04;24.97
62849;BME280;48941;49.516;8.286;2022-08-21T13:11:39;100277.84;;;31.86;25.30
62849;BME280;48941;49.516;8.286;2022-08-21T13:14:09;100274.44;;;32.11;25.35
62849;BME280;48941;49.516;8.286;2022-08-21T13:16:47;100270.84;;;32.21;24.91
62849;BME280;48941;49.516;8.286;2022-08-21T13:19:16;100268.88;;;32.06;25.49
62849;BME280;48941;49.516;8.286;2022-08-21T13:21:49;100274.34;;;32.01;25.67
62849;BME280;48941;49.516;8.286;2022-08-21T13:24:18;100268.78;;;31.91;25.08
62849;BME280;48941;49.516;8.286;2022-08-21T13:27:15;100265.09;;;31.70;25.07
62849;BME280;48941;49.516;8.286;2022-08-21T13:29:44;100270.75;;;31.53;25.33
62849;BME280;48941;49.516;8.286;2022-08-21T13:32:22;100267.78;;;31.60;25.86
62849;BME280;48941;49.516;8.286;2022-08-21T13:34:51;100264.84;;;31.71;25.21